Terminal Aerodrome Forecast
Issued by NWS Denver/Boulder, CO

Home | Current Version | Previous Version | Text Only | Print | Product List | Glossary On
Versions: 1 2 3 4 5 6 7 8 9 10 11 12 13 14 15 16 17 18 19 20 21 22 23 24 25 26 27 28 29 30 31 32
000
FTUS45 KBOU 221737
TAFDEN
TAF
KDEN 221737Z 2218/2324 28012KT P6SM FEW080 FEW200
     FM222100 34012KT P6SM FEW080 SCT200
     FM230100 VRB05KT P6SM SCT080 BKN200
     FM230300 18010KT P6SM SCT080 BKN120
     FM230600 21010KT P6SM BKN080
     FM231300 24008KT P6SM FEW080 SCT200
     FM231900 14007KT P6SM FEW080 SCT200=

USA.gov is the U.S. government's official web portal to all federal, state and local government web resources and services.